CheckWX is a tool to help pilots better visualize weather data.  It is not intended as a substitute for an official pre-flight weather briefing.

23:14:10 UTC

KACY TAF
Atlantic City International Airport Airport
Atlantic City, New Jersey, USA
KACY 092324Z 1000/1024 10008KT P6SM SCT030 BKN250 FM100500 07011KT P6SM VCSH SCT010 OVC015 FM101000 07012G20KT 4SM SHRA BR SCT007 OVC010 FM101300 04015G30KT 1SM +SHRA BR OVC008 FM101800 10010G20KT 4SM SHRA BR OVC010

Jul-10@
00:00 UTC

Jul-10 @ 00:00 UTC

Jul-10@
05:00 UTC

Jul-10 @ 05:00 UTC

TAF KACY 092324Z 1000/1024 10008KT P6SM SCT030 BKN250

Expired

Wind
  • 100° at 8 KTS
Cloud Levels
  • Scattered at 3,000' AGL
  • Broken at 25,000' AGL

Jul-10@
05:00 UTC

Jul-10 @ 05:00 UTC

Jul-10@
10:00 UTC

Jul-10 @ 10:00 UTC

FM100500 07011KT P6SM VCSH SCT010 OVC015

Expired

Wind
  • 070° at 11 KTS
Conditions
Area Showers
Cloud Levels
  • Scattered at 1,000' AGL
  • Overcast at 1,500' AGL

Jul-10@
10:00 UTC

Jul-10 @ 10:00 UTC

Jul-10@
13:00 UTC

Jul-10 @ 13:00 UTC

FM101000 07012G20KT 4SM SHRA BR SCT007 OVC010

Expired

Wind
  • 070° at 12 KTS
  • {Gusting to 20 KTS
Conditions
Showers, Rain, Mist
Cloud Levels
  • Scattered at 700' AGL
  • Overcast at 1,000' AGL

Jul-10@
13:00 UTC

Jul-10 @ 13:00 UTC

Jul-10@
18:00 UTC

Jul-10 @ 18:00 UTC

FM101300 04015G30KT 1SM +SHRA BR OVC008

Expired

Wind
  • 040° at 15 KTS
  • {Gusting to 30 KTS
Conditions
Heavy Showers, Rain, Mist
Cloud Levels
  • Overcast at 800' AGL

Jul-10@
18:00 UTC

Jul-10 @ 18:00 UTC

Jul-11@
00:00 UTC

Jul-11 @ 00:00 UTC

FM101800 10010G20KT 4SM SHRA BR OVC010

From

From Standard forecast or significant change

Wind
  • 100° at 10 KTS
  • {Gusting to 20 KTS
Conditions
Showers, Rain, Mist
Cloud Levels
  • Overcast at 1,000' AGL